createdAt,value
2019-01-06T00:02:11.737Z,101816.56
2019-01-06T00:04:49.909Z,101820.62
2019-01-06T00:07:21.909Z,101812.19
2019-01-06T00:09:54.180Z,101813.21
2019-01-06T00:12:32.570Z,101814.56
2019-01-06T00:15:16.905Z,101816.75
2019-01-06T00:17:46.069Z,101815.91
2019-01-06T00:20:31.054Z,101819.64
2019-01-06T00:23:16.622Z,101814.23
2019-01-06T00:26:02.041Z,101810.70
2019-01-06T00:28:46.307Z,101813.58
2019-01-06T00:31:15.782Z,101812.56
2019-01-06T00:34:01.510Z,101813.58
2019-01-06T00:36:36.518Z,101814.09
2019-01-06T00:39:06.958Z,101810.88
2019-01-06T00:41:42.373Z,101815.16
2019-01-06T00:44:27.657Z,101811.61
2019-01-06T00:46:59.530Z,101813.98
2019-01-06T00:49:34.450Z,101816.50
2019-01-06T00:52:15.909Z,101818.36
2019-01-06T00:54:47.678Z,101814.17
2019-01-06T00:57:33.305Z,101825.81
2019-01-06T01:00:17.660Z,101824.14
2019-01-06T01:02:59.240Z,101825.16
2019-01-06T01:05:28.638Z,101827.53
2019-01-06T01:08:14.044Z,101825.16
2019-01-06T01:10:52.416Z,101820.78
2019-01-06T01:13:21.712Z,101823.81
2019-01-06T01:16:07.377Z,101834.29
2019-01-06T01:18:36.628Z,101832.61
2019-01-06T01:21:05.764Z,101829.58
2019-01-06T01:23:37.647Z,101828.75
2019-01-06T01:26:18.506Z,101834.15
2019-01-06T01:28:53.394Z,101833.02
2019-01-06T01:31:22.536Z,101835.71
2019-01-06T01:34:09.961Z,101835.71
2019-01-06T01:36:39.093Z,101843.81
2019-01-06T01:39:08.483Z,101840.43
2019-01-06T01:41:50.028Z,101848.86
2019-01-06T01:44:37.500Z,101849.04
2019-01-06T01:47:15.722Z,101849.88
2019-01-06T01:49:51.271Z,101860.36
2019-01-06T01:52:20.646Z,101855.28
2019-01-06T01:54:49.780Z,101857.66
2019-01-06T01:57:22.114Z,101860.03
2019-01-06T02:00:08.030Z,101864.41
2019-01-06T02:02:37.151Z,101860.03
2019-01-06T02:05:07.106Z,101858.02
2019-01-06T02:07:36.744Z,101860.39
2019-01-06T02:10:07.667Z,101859.88
2019-01-06T02:12:46.113Z,101856.05
2019-01-06T02:15:15.570Z,101853.64
2019-01-06T02:18:01.500Z,101865.50
2019-01-06T02:20:33.457Z,101862.47
2019-01-06T02:23:02.801Z,101855.72
2019-01-06T02:25:31.951Z,101851.34
2019-01-06T02:28:10.973Z,101854.88
2019-01-06T02:30:42.906Z,101859.45
2019-01-06T02:33:17.782Z,101863.16
2019-01-06T02:35:56.442Z,101867.22
2019-01-06T02:38:28.854Z,101865.21
2019-01-06T02:40:58.234Z,101864.52
2019-01-06T02:43:33.194Z,101861.16
2019-01-06T02:46:08.201Z,101858.45
2019-01-06T02:48:40.486Z,101862.19
2019-01-06T02:51:25.668Z,101862.19
2019-01-06T02:53:57.559Z,101862.19
2019-01-06T02:56:38.240Z,101861.02
2019-01-06T02:59:23.873Z,101855.83
2019-01-06T03:02:11.362Z,101856.45
2019-01-06T03:04:40.542Z,101845.03
2019-01-06T03:07:15.465Z,101853.97
2019-01-06T03:09:53.720Z,101850.42
2019-01-06T03:12:38.181Z,101843.67
2019-01-06T03:15:07.909Z,101840.98
2019-01-06T03:17:37.406Z,101842.00
2019-01-06T03:20:09.230Z,101835.77
2019-01-06T03:22:41.516Z,101829.52
2019-01-06T03:25:16.454Z,101828.36
2019-01-06T03:27:57.813Z,101826.67
2019-01-06T03:30:27.257Z,101824.63
2019-01-06T03:33:08.724Z,101830.22
2019-01-06T03:35:37.900Z,101827.52
2019-01-06T03:38:09.598Z,101825.51
2019-01-06T03:40:44.993Z,101824.34
2019-01-06T03:43:20.261Z,101825.51
2019-01-06T03:46:06.009Z,101828.21
2019-01-06T03:48:35.230Z,101826.86
2019-01-06T03:51:20.939Z,101822.19
2019-01-06T03:54:02.263Z,101820.84
2019-01-06T03:56:47.535Z,101815.44
2019-01-06T03:59:16.672Z,101810.73
2019-01-06T04:01:48.938Z,101819.16
2019-01-06T04:04:27.127Z,101817.48
2019-01-06T04:06:56.258Z,101827.44
2019-01-06T04:09:42.035Z,101818.50
2019-01-06T04:12:30.100Z,101818.50
2019-01-06T04:15:14.308Z,101825.25
2019-01-06T04:17:46.519Z,101818.50
2019-01-06T04:20:31.815Z,101811.94
2019-01-06T04:23:03.708Z,101823.24
2019-01-06T04:25:51.343Z,101815.15
2019-01-06T04:28:35.613Z,101822.59
2019-01-06T04:31:16.957Z,101820.55
2019-01-06T04:33:52.852Z,101822.59
2019-01-06T04:36:38.664Z,101822.59
2019-01-06T04:39:10.986Z,101831.53
2019-01-06T04:41:56.094Z,101842.00
2019-01-06T04:44:37.263Z,101837.86
2019-01-06T04:47:24.701Z,101832.53
2019-01-06T04:49:54.096Z,101826.80
2019-01-06T04:52:32.127Z,101823.81
2019-01-06T04:55:07.036Z,101820.48
2019-01-06T04:57:38.893Z,101824.20
2019-01-06T05:00:18.012Z,101817.49
2019-01-06T05:03:03.210Z,101818.19
2019-01-06T05:05:32.459Z,101822.74
2019-01-06T05:08:07.857Z,101823.80
2019-01-06T05:10:43.170Z,101830.00
2019-01-06T05:13:24.819Z,101830.42
2019-01-06T05:16:12.394Z,101835.81
2019-01-06T05:18:56.386Z,101833.84
2019-01-06T05:21:31.642Z,101834.71
2019-01-06T05:24:03.970Z,101841.97
2019-01-06T05:26:36.185Z,101842.14
2019-01-06T05:29:05.490Z,101846.04
2019-01-06T05:31:34.716Z,101845.53
2019-01-06T05:34:21.940Z,101842.38
2019-01-06T05:36:51.234Z,101837.97
2019-01-06T05:39:20.509Z,101837.64
2019-01-06T05:41:49.878Z,101835.97
2019-01-06T05:44:21.480Z,101834.80
2019-01-06T05:47:04.188Z,101835.30
2019-01-06T05:49:51.848Z,101836.32
2019-01-06T05:52:36.230Z,101838.33
2019-01-06T05:55:21.944Z,101837.37
2019-01-06T05:57:51.376Z,101839.41
2019-01-06T06:00:20.663Z,101845.82
2019-01-06T06:02:49.791Z,101851.55
2019-01-06T06:05:19.169Z,101852.05
2019-01-06T06:07:51.748Z,101858.64
2019-01-06T06:10:26.628Z,101858.82
2019-01-06T06:12:55.994Z,101858.70
2019-01-06T06:15:25.373Z,101857.35
2019-01-06T06:18:10.852Z,101854.66
2019-01-06T06:20:48.768Z,101848.75
2019-01-06T06:23:20.940Z,101846.23
2019-01-06T06:26:06.947Z,101848.59
2019-01-06T06:28:48.301Z,101841.17
2019-01-06T06:31:17.717Z,101840.86
2019-01-06T06:34:03.204Z,101845.06
2019-01-06T06:36:32.688Z,101851.14
2019-01-06T06:39:18.162Z,101849.97
2019-01-06T06:41:47.330Z,101854.19
2019-01-06T06:44:25.705Z,101849.34
2019-01-06T06:47:00.878Z,101858.77
2019-01-06T06:49:39.244Z,101859.80
2019-01-06T06:52:11.499Z,101865.52
2019-01-06T06:54:43.758Z,101862.48
2019-01-06T06:57:34.270Z,101863.84
2019-01-06T07:00:21.832Z,101865.31
2019-01-06T07:03:02.957Z,101866.12
2019-01-06T07:05:35.044Z,101870.83
2019-01-06T07:08:04.202Z,101879.94
2019-01-06T07:10:42.832Z,101878.77
2019-01-06T07:13:15.043Z,101883.33
2019-01-06T07:15:50.118Z,101890.40
2019-01-06T07:18:28.871Z,101893.55
2019-01-06T07:21:00.833Z,101897.75
2019-01-06T07:23:35.969Z,101903.63
2019-01-06T07:26:05.114Z,101898.69
2019-01-06T07:28:34.562Z,101904.06
2019-01-06T07:31:19.962Z,101901.85
2019-01-06T07:34:00.931Z,101911.78
2019-01-06T07:36:32.506Z,101916.12
2019-01-06T07:39:04.939Z,101912.71
2019-01-06T07:41:37.025Z,101911.01
2019-01-06T07:44:22.779Z,101923.42
2019-01-06T07:47:00.981Z,101922.91
2019-01-06T07:49:36.053Z,101925.92
2019-01-06T07:52:20.244Z,101928.44
2019-01-06T07:55:04.528Z,101925.34
2019-01-06T07:57:39.674Z,101926.02
2019-01-06T08:00:17.861Z,101933.54
2019-01-06T08:02:46.989Z,101925.27
2019-01-06T08:05:22.665Z,101928.44
2019-01-06T08:07:57.822Z,101928.27
2019-01-06T08:10:43.624Z,101931.59
2019-01-06T08:13:18.992Z,101934.62
